Time;durP1;ratioP1;P1;durP2;ratioP2;P2;SDS_P1;SDS_P2;PMS_P1;PMS_P2;Temp;Humidity;BMP_temperature;BMP_pressure;BME280_temperature;BME280_humidity;BME280_pressure;Samples;Min_cycle;Max_cycle;Signal;HPM_P1;HPM_P2
2024/01/05 00:00:58;;;;;;;10.05;2.90;;;;;;;8.73;100.00;99655.25;4974508;28;20062;-61
2024/01/05 00:03:23;;;;;;;11.27;2.47;;;;;;;8.75;100.00;99650.94;4974431;28;20042;-59
2024/01/05 00:05:49;;;;;;;17.33;3.58;;;;;;;8.76;100.00;99647.44;4982405;28;20514;-60
2024/01/05 00:08:14;;;;;;;11.52;2.95;;;;;;;8.76;100.00;99644.88;4987300;28;20244;-60
2024/01/05 00:10:39;;;;;;;9.63;2.63;;;;;;;8.78;100.00;99650.00;4979022;28;20117;-59
2024/01/05 00:13:06;;;;;;;12.35;3.40;;;;;;;8.80;100.00;99635.38;4986685;28;20039;-59
2024/01/05 00:15:32;;;;;;;13.68;3.00;;;;;;;8.77;100.00;99632.84;4978534;28;20057;-59
2024/01/05 00:17:57;;;;;;;9.02;2.63;;;;;;;8.75;100.00;99638.03;4982884;28;20125;-59
2024/01/05 00:20:22;;;;;;;15.40;2.90;;;;;;;8.73;100.00;99638.94;4976146;28;20023;-59
2024/01/05 00:22:48;;;;;;;18.02;3.30;;;;;;;8.76;100.00;99634.56;4977082;28;20057;-58
2024/01/05 00:25:15;;;;;;;12.70;2.85;;;;;;;8.78;100.00;99624.25;4987333;28;20045;-58
2024/01/05 00:27:41;;;;;;;19.75;2.95;;;;;;;8.79;100.00;99626.78;4976840;28;20073;-58
2024/01/05 00:30:07;;;;;;;10.10;2.65;;;;;;;8.83;100.00;99615.56;4978245;28;20429;-63
2024/01/05 00:32:32;;;;;;;9.75;2.67;;;;;;;8.84;100.00;99613.81;4976546;28;20117;-63
2024/01/05 00:34:57;;;;;;;13.00;3.08;;;;;;;8.80;100.00;99605.31;4984121;28;20544;-61
2024/01/05 00:37:23;;;;;;;14.25;3.22;;;;;;;8.80;100.00;99600.16;4978441;28;20349;-62
2024/01/05 00:39:48;;;;;;;16.15;2.55;;;;;;;8.83;100.00;99596.66;4978395;28;20043;-62
2024/01/05 00:42:13;;;;;;;16.50;2.60;;;;;;;8.79;100.00;99590.72;4977329;28;20070;-62
2024/01/05 00:44:40;;;;;;;13.85;2.25;;;;;;;8.76;100.00;99587.34;4983728;28;20038;-62
2024/01/05 00:47:06;;;;;;;11.68;2.50;;;;;;;8.67;100.00;99590.09;4977783;28;20030;-62
2024/01/05 00:49:31;;;;;;;15.95;2.78;;;;;;;8.59;100.00;99590.25;4973016;28;20085;-63
2024/01/05 00:51:57;;;;;;;15.38;3.22;;;;;;;8.52;100.00;99584.38;4974620;28;20050;-63
2024/01/05 00:54:22;;;;;;;19.20;3.13;;;;;;;8.51;100.00;99584.41;4984253;28;20049;-62
2024/01/05 00:56:48;;;;;;;12.07;3.33;;;;;;;8.45;100.00;99575.09;4977971;28;20054;-62
2024/01/05 00:59:13;;;;;;;9.18;2.40;;;;;;;8.36;100.00;99579.53;4983740;28;20593;-62
2024/01/05 01:01:38;;;;;;;12.43;2.42;;;;;;;8.28;100.00;99568.53;4977811;28;20043;-63
2024/01/05 01:04:04;;;;;;;15.40;2.78;;;;;;;8.25;100.00;99561.69;4977932;28;20073;-63
2024/01/05 01:06:29;;;;;;;12.55;2.97;;;;;;;8.28;100.00;99558.22;4981741;28;20037;-63
2024/01/05 01:08:55;;;;;;;12.82;3.40;;;;;;;8.23;100.00;99555.75;4979636;28;20141;-63
2024/01/05 01:11:22;;;;;;;13.75;2.97;;;;;;;8.14;100.00;99549.91;4972986;28;20625;-63
2024/01/05 01:13:48;;;;;;;12.88;2.50;;;;;;;8.12;100.00;99549.09;4978560;28;20038;-62
2024/01/05 01:16:13;;;;;;;17.88;2.72;;;;;;;8.08;100.00;99544.88;4970758;28;20042;-63
2024/01/05 01:18:38;;;;;;;12.43;2.50;;;;;;;8.09;100.00;99542.28;4971714;28;20575;-63
2024/01/05 01:21:04;;;;;;;14.20;2.83;;;;;;;8.06;100.00;99542.34;4973743;28;20030;-63
2024/01/05 01:23:29;;;;;;;17.88;3.40;;;;;;;8.07;100.00;99541.44;4975798;28;20057;-63
2024/01/05 01:25:55;;;;;;;12.55;3.35;;;;;;;8.08;100.00;99539.72;4973177;28;20081;-59
2024/01/05 01:28:20;;;;;;;10.23;2.47;;;;;;;8.06;100.00;99541.47;4986100;28;20045;-59
2024/01/05 01:30:46;;;;;;;18.52;2.70;;;;;;;8.04;100.00;99531.19;4980061;28;20756;-59
2024/01/05 01:33:11;;;;;;;7.97;2.47;;;;;;;8.00;100.00;99527.84;4982052;28;20645;-59
2024/01/05 01:35:36;;;;;;;9.15;3.03;;;;;;;7.99;100.00;99526.16;4985006;28;20069;-60
2024/01/05 01:38:02;;;;;;;13.98;2.53;;;;;;;8.00;100.00;99529.59;4987121;28;20033;-59
2024/01/05 01:40:27;;;;;;;13.32;2.60;;;;;;;8.04;100.00;99533.78;4983933;28;20041;-59
2024/01/05 01:42:53;;;;;;;11.85;2.85;;;;;;;8.02;100.00;99533.81;4991730;28;20034;-59
2024/01/05 01:45:18;;;;;;;14.25;2.80;;;;;;;7.99;100.00;99530.44;4981716;28;20038;-59
2024/01/05 01:47:45;;;;;;;14.02;3.25;;;;;;;7.98;100.00;99521.06;4983303;28;20041;-62
2024/01/05 01:50:12;;;;;;;14.20;3.22;;;;;;;7.95;100.00;99534.78;4978411;28;20038;-61
2024/01/05 01:52:38;;;;;;;13.88;3.00;;;;;;;7.98;100.00;99524.44;4978968;28;20061;-61
2024/01/05 01:55:04;;;;;;;15.77;3.17;;;;;;;7.95;100.00;99523.69;4982792;28;20042;-61
2024/01/05 01:57:30;;;;;;;18.60;3.95;;;;;;;7.96;100.00;99522.78;4979996;28;20464;-62
2024/01/05 01:59:56;;;;;;;13.00;3.30;;;;;;;7.89;100.00;99524.59;4977344;28;20057;-61
2024/01/05 02:02:22;;;;;;;14.27;3.08;;;;;;;7.91;100.00;99522.88;4978847;28;20042;-61
2024/01/05 02:04:50;;;;;;;14.57;2.60;;;;;;;7.97;100.00;99511.63;4975374;28;20112;-61
2024/01/05 02:07:16;;;;;;;12.63;2.42;;;;;;;7.93;100.00;99517.69;4976413;28;20145;-61
2024/01/05 02:09:41;;;;;;;17.60;3.20;;;;;;;7.94;100.00;99511.69;4976486;28;20654;-63
2024/01/05 02:12:07;;;;;;;18.88;3.28;;;;;;;8.03;100.00;99508.94;4971352;28;20149;-62
2024/01/05 02:14:32;;;;;;;13.70;2.67;;;;;;;8.10;100.00;99509.69;4974494;28;20062;-63
2024/01/05 02:16:59;;;;;;;9.07;2.45;;;;;;;8.15;100.00;99502.72;4979243;28;20045;-62
2024/01/05 02:19:24;;;;;;;10.57;2.65;;;;;;;8.23;100.00;99496.53;4971460;28;20516;-63
2024/01/05 02:21:53;;;;;;;14.70;2.65;;;;;;;8.27;100.00;99505.06;4974982;28;20046;-63
2024/01/05 02:24:18;;;;;;;11.65;3.13;;;;;;;8.28;100.00;99502.44;4977735;28;20038;-63
2024/01/05 02:26:44;;;;;;;16.30;2.83;;;;;;;8.33;100.00;99498.06;4977043;28;20517;-62
2024/01/05 02:29:09;;;;;;;12.50;2.35;;;;;;;8.39;100.00;99499.69;4981743;28;20034;-63
2024/01/05 02:31:34;;;;;;;14.73;2.55;;;;;;;8.45;100.00;99496.97;4973642;28;20045;-63
2024/01/05 02:34:00;;;;;;;8.23;2.63;;;;;;;8.47;100.00;99493.50;4971591;28;20066;-59
2024/01/05 02:36:25;;;;;;;8.00;2.47;;;;;;;8.50;100.00;99495.16;4977574;28;20596;-60
2024/01/05 02:38:50;;;;;;;11.38;2.25;;;;;;;8.56;100.00;99489.88;4978648;28;20038;-58
2024/01/05 02:41:16;;;;;;;8.25;2.58;;;;;;;8.60;100.00;99493.25;4976347;28;20029;-58
2024/01/05 02:43:41;;;;;;;11.15;2.50;;;;;;;8.61;100.00;99482.88;4970848;28;20046;-58
2024/01/05 02:46:09;;;;;;;13.65;3.17;;;;;;;8.65;100.00;99475.94;4975735;28;20580;-59
2024/01/05 02:48:34;;;;;;;12.43;3.03;;;;;;;8.64;100.00;99469.09;4970358;28;20043;-63
2024/01/05 02:51:00;;;;;;;6.45;2.70;;;;;;;8.61;100.00;99464.00;4984860;28;20049;-62
2024/01/05 02:53:25;;;;;;;11.07;2.40;;;;;;;8.63;100.00;99457.13;4972364;28;20093;-63
2024/01/05 02:55:50;;;;;;;7.18;2.60;;;;;;;8.63;100.00;99457.97;4983421;28;20549;-60
2024/01/05 02:58:16;;;;;;;8.13;1.98;;;;;;;8.65;100.00;99452.78;4983187;28;20066;-61
2024/01/05 03:00:41;;;;;;;9.15;2.22;;;;;;;8.68;100.00;99452.72;4987722;28;20073;-60
2024/01/05 03:03:06;;;;;;;8.55;2.47;;;;;;;8.73;100.00;99438.84;4987536;28;20101;-60
2024/01/05 03:05:32;;;;;;;8.63;2.10;;;;;;;8.72;100.00;99429.44;4991769;28;20232;-60
2024/01/05 03:07:57;;;;;;;13.25;2.28;;;;;;;8.70;100.00;99426.03;4982595;28;20061;-60
2024/01/05 03:10:23;;;;;;;7.90;1.98;;;;;;;8.68;100.00;99432.94;4979632;28;20049;-59
2024/01/05 03:12:51;;;;;;;11.20;2.33;;;;;;;8.69;100.00;99426.06;4988541;28;20046;-59
2024/01/05 03:15:17;;;;;;;5.50;2.10;;;;;;;8.60;100.00;99426.28;4977571;28;20042;-59
2024/01/05 03:17:42;;;;;;;9.82;2.78;;;;;;;8.49;100.00;99416.19;4980429;28;20531;-59
2024/01/05 03:20:09;;;;;;;7.25;1.80;;;;;;;8.43;100.00;99421.47;4985796;28;20039;-59
2024/01/05 03:22:35;;;;;;;9.80;2.55;;;;;;;8.42;100.00;99428.38;4985241;28;20544;-61
2024/01/05 03:25:01;;;;;;;10.13;2.25;;;;;;;8.40;100.00;99424.09;4977166;28;20042;-61
2024/01/05 03:27:26;;;;;;;9.15;2.40;;;;;;;8.38;100.00;99420.72;4984292;28;20043;-59
2024/01/05 03:29:51;;;;;;;9.80;2.25;;;;;;;8.33;100.00;99413.13;4981750;28;20030;-58
2024/01/05 03:32:17;;;;;;;9.23;2.70;;;;;;;8.28;100.00;99416.63;4972664;28;20046;-59
2024/01/05 03:34:42;;;;;;;11.15;1.88;;;;;;;8.22;100.00;99407.31;4979137;28;20133;-58
2024/01/05 03:37:07;;;;;;;10.52;2.92;;;;;;;8.24;100.00;99403.00;4978626;28;20630;-61
2024/01/05 03:39:32;;;;;;;10.13;2.33;;;;;;;8.16;100.00;99396.31;4979454;28;20035;-63
2024/01/05 03:41:58;;;;;;;9.43;3.17;;;;;;;8.11;100.00;99383.53;4984069;28;20045;-62
2024/01/05 03:44:23;;;;;;;16.58;3.28;;;;;;;8.10;100.00;99389.56;4980529;28;20076;-61
2024/01/05 03:46:50;;;;;;;15.77;3.65;;;;;;;8.02;100.00;99389.72;4984243;28;20664;-61
2024/01/05 03:49:15;;;;;;;9.27;2.40;;;;;;;7.99;100.00;99397.50;4970286;28;20132;-61
2024/01/05 03:51:41;;;;;;;11.30;3.38;;;;;;;7.94;100.00;99391.59;4979886;28;20159;-59
2024/01/05 03:54:06;;;;;;;9.88;2.58;;;;;;;7.99;100.00;99387.22;4983901;28;20038;-58
2024/01/05 03:56:42;;;;;;;12.05;2.28;;;;;;;7.99;100.00;99394.94;4984528;28;20046;-59
2024/01/05 03:59:08;;;;;;;13.93;2.10;;;;;;;8.04;100.00;99391.44;4982410;28;20039;-58
2024/01/05 04:01:45;;;;;;;10.85;2.28;;;;;;;8.15;100.00;99377.47;4984580;28;20066;-59
2024/01/05 04:04:10;;;;;;;7.28;2.10;;;;;;;8.20;100.00;99365.34;4971672;28;20230;-58
2024/01/05 04:06:36;;;;;;;9.05;2.72;;;;;;;8.19;100.00;99370.53;4977270;28;20590;-59
2024/01/05 04:09:01;;;;;;;8.80;2.40;;;;;;;8.20;100.00;99362.75;4976779;28;20096;-60
2024/01/05 04:11:30;;;;;;;7.22;2.05;;;;;;;8.19;100.00;99365.38;4989237;28;20065;-59
2024/01/05 04:13:55;;;;;;;8.57;2.20;;;;;;;8.13;100.00;99368.91;4984384;28;20201;-59
2024/01/05 04:16:21;;;;;;;9.15;2.22;;;;;;;8.11;100.00;99372.38;4999383;28;20067;-59
2024/01/05 04:18:46;;;;;;;12.00;2.13;;;;;;;8.15;100.00;99349.16;4985495;28;20489;-59
2024/01/05 04:21:13;;;;;;;5.82;1.85;;;;;;;8.17;100.00;99342.22;4985674;28;20140;-60
2024/01/05 04:23:39;;;;;;;10.07;2.22;;;;;;;8.18;100.00;99343.94;4988470;28;20042;-59
2024/01/05 04:26:05;;;;;;;4.63;1.75;;;;;;;8.24;100.00;99351.53;4984714;28;20034;-59
2024/01/05 04:28:30;;;;;;;5.55;1.80;;;;;;;8.31;100.00;99342.78;4989525;28;20092;-59
2024/01/05 04:30:56;;;;;;;6.47;1.90;;;;;;;8.40;100.00;99350.28;4996400;28;20045;-60
2024/01/05 04:33:21;;;;;;;8.48;1.88;;;;;;;8.46;100.00;99350.16;4979902;28;20065;-59
2024/01/05 04:35:47;;;;;;;5.93;1.80;;;;;;;8.52;100.00;99352.59;4982467;28;20074;-59
2024/01/05 04:38:12;;;;;;;6.55;1.98;;;;;;;8.54;100.00;99360.31;4982993;28;20113;-59
2024/01/05 04:40:37;;;;;;;7.20;1.75;;;;;;;8.54;100.00;99373.19;4991281;28;20133;-59
2024/01/05 04:43:03;;;;;;;6.20;1.95;;;;;;;8.58;100.00;99374.78;4982313;28;20958;-59
2024/01/05 04:45:28;;;;;;;5.07;1.50;;;;;;;8.59;100.00;99368.75;4982539;28;20047;-59
2024/01/05 04:47:54;;;;;;;4.13;1.60;;;;;;;8.63;100.00;99378.13;4983830;28;20049;-59
2024/01/05 04:50:19;;;;;;;8.60;2.00;;;;;;;8.66;100.00;99370.34;4989485;28;20153;-59
2024/01/05 04:52:44;;;;;;;7.93;2.28;;;;;;;8.70;100.00;99371.09;4996732;28;20148;-59
2024/01/05 04:55:14;;;;;;;6.68;2.20;;;;;;;8.71;100.00;99371.06;4983844;28;20038;-60
2024/01/05 04:57:40;;;;;;;8.07;2.10;;;;;;;8.75;100.00;99370.13;4979746;28;20409;-62
2024/01/05 05:00:06;;;;;;;10.00;1.92;;;;;;;8.87;98.08;99349.19;4982153;28;20069;-62
2024/01/05 05:02:31;;;;;;;10.48;2.28;;;;;;;8.96;97.55;99341.25;4985282;28;20025;-62
2024/01/05 05:04:56;;;;;;;11.88;1.80;;;;;;;9.02;96.23;99345.41;4974715;28;20609;-63
2024/01/05 05:07:22;;;;;;;7.47;1.83;;;;;;;9.06;96.06;99344.44;4971735;28;20868;-63
2024/01/05 05:09:47;;;;;;;7.57;1.90;;;;;;;9.08;95.78;99333.19;4978098;28;20042;-63
2024/01/05 05:12:13;;;;;;;8.23;1.75;;;;;;;9.16;94.72;99316.72;4974575;28;20055;-59
2024/01/05 05:14:38;;;;;;;7.57;1.98;;;;;;;9.14;94.41;99320.16;4981241;28;20474;-63
2024/01/05 05:17:04;;;;;;;13.23;2.10;;;;;;;9.14;94.52;99315.00;4980550;28;20034;-59
2024/01/05 05:19:29;;;;;;;6.43;1.45;;;;;;;9.13;94.63;99315.06;4977595;28;20743;-60
2024/01/05 05:21:55;;;;;;;8.50;2.08;;;;;;;9.21;92.28;99309.69;4975487;28;20049;-58
2024/01/05 05:24:20;;;;;;;7.55;2.30;;;;;;;9.27;91.76;99300.06;4973646;28;20677;-63
2024/01/05 05:26:45;;;;;;;8.07;1.83;;;;;;;9.29;91.47;99298.28;4973907;28;20033;-63
2024/01/05 05:29:11;;;;;;;8.25;1.95;;;;;;;9.30;90.66;99300.00;4976313;28;20042;-62
2024/01/05 05:31:36;;;;;;;6.93;2.22;;;;;;;9.27;92.06;99305.22;4979254;28;20053;-58
2024/01/05 05:34:02;;;;;;;11.18;1.67;;;;;;;9.30;91.19;99304.28;4974938;28;20054;-63
2024/01/05 05:36:27;;;;;;;6.60;1.98;;;;;;;9.31;90.54;99296.53;4979142;28;20042;-63
2024/01/05 05:38:52;;;;;;;7.80;1.80;;;;;;;9.37;89.65;99285.22;4982593;28;20116;-63
2024/01/05 05:41:18;;;;;;;7.18;2.50;;;;;;;9.39;89.40;99281.69;4972755;28;20704;-63
2024/01/05 05:43:45;;;;;;;8.07;1.83;;;;;;;9.47;88.54;99263.41;4974301;28;20070;-62
2024/01/05 05:46:11;;;;;;;10.65;2.40;;;;;;;9.43;88.77;99280.72;4978908;28;20053;-63
2024/01/05 05:48:36;;;;;;;4.43;1.38;;;;;;;9.42;89.30;99284.19;4975082;28;20050;-63
2024/01/05 05:51:03;;;;;;;5.60;1.70;;;;;;;9.45;87.81;99270.38;4979084;28;20146;-62
2024/01/05 05:53:28;;;;;;;8.27;1.77;;;;;;;9.53;86.48;99255.50;4975566;28;20790;-63
2024/01/05 05:55:54;;;;;;;5.78;1.67;;;;;;;9.53;86.25;99256.34;4982584;28;20042;-62
2024/01/05 05:58:19;;;;;;;4.28;1.40;;;;;;;9.51;85.46;99250.41;4978060;28;21949;-62
2024/01/05 06:00:44;;;;;;;7.05;1.55;;;;;;;9.49;85.87;99254.78;4987264;23;20593;-63
2024/01/05 06:03:10;;;;;;;6.18;1.20;;;;;;;9.44;85.77;99258.34;4992429;28;20034;-62
2024/01/05 06:05:35;;;;;;;8.27;2.25;;;;;;;9.37;86.29;99262.00;4993109;28;20554;-62
2024/01/05 06:08:01;;;;;;;8.57;1.92;;;;;;;9.39;85.58;99263.66;4995119;28;20132;-63
2024/01/05 06:10:26;;;;;;;4.03;1.35;;;;;;;9.44;85.66;99258.34;4992391;28;20466;-61
2024/01/05 06:12:52;;;;;;;4.75;1.80;;;;;;;9.48;85.32;99250.50;4992329;28;20042;-61
2024/01/05 06:15:18;;;;;;;7.72;2.28;;;;;;;9.51;85.94;99252.13;4992957;28;20049;-61
2024/01/05 06:17:44;;;;;;;4.45;1.30;;;;;;;9.59;83.14;99240.75;4987208;28;20048;-61
2024/01/05 06:20:10;;;;;;;8.80;2.22;;;;;;;9.64;83.01;99227.72;4998667;28;20401;-63
2024/01/05 06:22:35;;;;;;;8.02;1.60;;;;;;;9.65;83.41;99227.66;4990024;28;20046;-63
2024/01/05 06:25:00;;;;;;;6.75;1.48;;;;;;;9.59;83.33;99230.44;4997368;28;21600;-63
2024/01/05 06:27:26;;;;;;;7.80;1.30;;;;;;;9.41;84.17;99253.28;4995050;28;20053;-61
2024/01/05 06:29:51;;;;;;;5.65;1.42;;;;;;;9.26;84.84;99254.53;4993923;28;20037;-61
2024/01/05 06:32:16;;;;;;;3.22;1.33;;;;;;;9.19;85.32;99254.75;4993218;28;20519;-61
2024/01/05 06:34:42;;;;;;;10.00;1.27;;;;;;;9.08;85.94;99257.59;4995766;28;20103;-61
2024/01/05 06:37:07;;;;;;;4.22;1.35;;;;;;;9.04;86.17;99256.03;4991920;28;20483;-61
2024/01/05 06:39:33;;;;;;;5.28;1.17;;;;;;;8.92;86.79;99272.66;4986509;28;20174;-59
2024/01/05 06:41:58;;;;;;;3.33;1.25;;;;;;;8.92;86.84;99272.66;4997369;28;20038;-62
2024/01/05 06:44:23;;;;;;;3.30;1.45;;;;;;;8.93;85.95;99266.59;4994610;28;20034;-63
2024/01/05 06:46:50;;;;;;;4.13;1.55;;;;;;;8.90;86.53;99276.97;4993650;28;20155;-63
2024/01/05 06:49:16;;;;;;;3.17;1.13;;;;;;;8.92;86.19;99269.22;4985751;28;20044;-62
2024/01/05 06:51:41;;;;;;;6.00;1.23;;;;;;;8.99;85.82;99270.75;4996959;28;20046;-63
2024/01/05 06:54:07;;;;;;;7.13;1.33;;;;;;;9.11;85.63;99265.25;4990735;28;20172;-63
2024/01/05 06:56:32;;;;;;;3.58;1.23;;;;;;;9.18;85.12;99260.78;4997216;28;20134;-63
2024/01/05 06:59:02;;;;;;;5.50;1.55;;;;;;;9.29;83.38;99236.41;4990607;28;20161;-63
2024/01/05 07:01:28;;;;;;;5.88;1.30;;;;;;;9.31;84.29;99246.69;4996207;28;20169;-63
2024/01/05 07:03:54;;;;;;;7.05;1.90;;;;;;;9.35;83.72;99238.81;4989138;28;20048;-59
2024/01/05 07:06:19;;;;;;;6.00;1.20;;;;;;;9.43;83.58;99225.72;4991067;28;20038;-61
2024/01/05 07:08:44;;;;;;;5.82;1.65;;;;;;;9.41;83.45;99233.50;4990364;28;20462;-64
2024/01/05 07:11:22;;;;;;;5.82;1.45;;;;;;;9.47;82.41;99214.41;4991364;28;20140;-64
2024/01/05 07:13:47;;;;;;;3.00;1.23;;;;;;;9.40;81.80;99211.19;4990399;28;20396;-64
2024/01/05 07:16:22;;;;;;;2.83;0.88;;;;;;;9.36;82.07;99206.16;4991045;28;20129;-64
2024/01/05 07:18:48;;;;;;;3.38;1.38;;;;;;;9.37;82.11;99208.69;4996691;28;20137;-64
2024/01/05 07:21:15;;;;;;;5.72;1.10;;;;;;;9.32;81.79;99217.44;4994314;28;20056;-64
2024/01/05 07:23:40;;;;;;;4.00;1.30;;;;;;;9.37;82.03;99215.59;4990874;28;20045;-63
2024/01/05 07:26:05;;;;;;;4.88;1.25;;;;;;;9.38;82.36;99220.69;4996811;28;20097;-64
2024/01/05 07:28:31;;;;;;;4.88;1.50;;;;;;;9.53;80.36;99191.03;4998294;28;20506;-64
2024/01/05 07:30:56;;;;;;;3.45;1.42;;;;;;;9.49;81.00;99221.25;4996211;28;20165;-64
2024/01/05 07:33:21;;;;;;;4.07;1.35;;;;;;;9.43;81.77;99218.84;4996070;28;20042;-64
2024/01/05 07:35:48;;;;;;;4.28;1.17;;;;;;;9.41;81.20;99219.75;4995083;28;20042;-64
2024/01/05 07:38:13;;;;;;;7.25;1.55;;;;;;;9.42;81.62;99211.97;4999134;28;20861;-64
2024/01/05 07:40:38;;;;;;;5.53;1.63;;;;;;;9.50;81.29;99212.59;4998708;28;20045;-64
2024/01/05 07:43:04;;;;;;;4.13;1.05;;;;;;;9.57;80.91;99210.69;4996666;28;20696;-63
2024/01/05 07:45:29;;;;;;;5.60;1.42;;;;;;;9.56;81.65;99220.16;4997785;28;20773;-64
2024/01/05 07:47:57;;;;;;;3.47;1.17;;;;;;;9.56;81.53;99232.22;4996505;28;20052;-64
2024/01/05 07:50:26;;;;;;;2.50;1.02;;;;;;;9.62;80.26;99209.69;4994317;28;20042;-64
2024/01/05 07:52:51;;;;;;;3.97;1.10;;;;;;;9.60;81.56;99233.84;4996680;28;20041;-64
2024/01/05 07:55:17;;;;;;;6.80;1.90;;;;;;;9.61;81.18;99240.72;4996735;28;20046;-64
2024/01/05 07:57:43;;;;;;;5.53;1.23;;;;;;;9.57;82.26;99259.72;4999950;28;20038;-63
2024/01/05 08:00:09;;;;;;;6.05;1.38;;;;;;;9.55;81.64;99230.53;4996931;28;20045;-64
2024/01/05 08:02:35;;;;;;;6.43;1.15;;;;;;;9.44;82.45;99240.28;4998184;28;20511;-63
2024/01/05 08:05:00;;;;;;;3.08;1.30;;;;;;;9.33;82.88;99250.06;4999584;28;20049;-59
2024/01/05 08:07:26;;;;;;;4.07;1.45;;;;;;;9.21;83.02;99268.44;4996569;28;20038;-59
2024/01/05 08:09:52;;;;;;;6.60;1.35;;;;;;;9.18;83.52;99268.53;4996468;28;20046;-64
2024/01/05 08:12:20;;;;;;;3.20;1.02;;;;;;;9.03;85.27;99290.41;4997503;28;20064;-61
2024/01/05 08:14:45;;;;;;;7.35;1.20;;;;;;;9.07;84.96;99292.03;4999793;28;20664;-62
2024/01/05 08:17:10;;;;;;;2.33;1.00;;;;;;;8.93;85.18;99296.69;4999335;28;20040;-61
2024/01/05 08:19:36;;;;;;;4.55;1.58;;;;;;;8.89;86.06;99303.66;4996199;28;20042;-62
2024/01/05 08:22:01;;;;;;;3.22;1.02;;;;;;;9.00;84.84;99291.31;5000365;28;20045;-64
2024/01/05 08:24:27;;;;;;;5.13;1.10;;;;;;;8.90;86.19;99315.63;4989422;28;20038;-64
2024/01/05 08:26:53;;;;;;;5.63;1.35;;;;;;;8.89;85.89;99324.25;4996810;28;20030;-64
2024/01/05 08:29:21;;;;;;;8.38;1.73;;;;;;;8.80;86.92;99333.94;4992553;28;20038;-64
2024/01/05 08:31:47;;;;;;;5.13;0.98;;;;;;;8.71;87.45;99341.88;4994583;28;20041;-64
2024/01/05 08:34:12;;;;;;;6.18;1.70;;;;;;;8.73;87.54;99337.53;4994005;28;20049;-64
2024/01/05 08:36:37;;;;;;;5.13;2.05;;;;;;;8.67;87.94;99356.56;4992208;28;20046;-64
2024/01/05 08:39:05;;;;;;;6.28;1.52;;;;;;;8.66;88.65;99343.72;4996489;28;20699;-58
2024/01/05 08:41:30;;;;;;;4.43;1.20;;;;;;;8.71;87.98;99332.44;4989201;28;20023;-58
2024/01/05 08:43:56;;;;;;;6.80;1.20;;;;;;;8.74;87.90;99334.94;5000090;28;20037;-60
2024/01/05 08:46:21;;;;;;;5.53;1.17;;;;;;;8.86;86.07;99310.59;4992795;28;20073;-60
2024/01/05 08:48:46;;;;;;;2.92;1.10;;;;;;;8.87;85.47;99313.13;4997743;28;20081;-60
2024/01/05 08:51:12;;;;;;;4.10;1.13;;;;;;;8.95;83.92;99282.88;5001143;28;20129;-60
2024/01/05 08:53:37;;;;;;;5.82;1.58;;;;;;;8.99;83.10;99281.06;5000302;28;20113;-60
2024/01/05 08:56:03;;;;;;;5.95;1.40;;;;;;;9.00;82.58;99272.44;4997308;28;20038;-60
2024/01/05 08:58:28;;;;;;;5.78;1.10;;;;;;;8.95;82.03;99288.03;4992618;28;20088;-60
2024/01/05 09:00:54;;;;;;;3.00;0.90;;;;;;;9.03;77.74;99202.78;4999247;28;20076;-59
2024/01/05 09:03:19;;;;;;;3.30;0.70;;;;;;;9.03;79.23;99233.69;4992981;28;20033;-60
2024/01/05 09:05:46;;;;;;;2.10;0.70;;;;;;;9.03;78.50;99228.53;4997930;28;20038;-59
2024/01/05 09:08:11;;;;;;;1.77;0.65;;;;;;;8.98;79.05;99240.72;4993806;28;20464;-60
2024/01/05 09:10:38;;;;;;;2.08;0.75;;;;;;;8.96;79.07;99250.22;4994763;28;20038;-60
2024/01/05 09:13:03;;;;;;;1.17;0.22;;;;;;;9.03;76.76;99207.94;4998308;28;20046;-60
2024/01/05 09:15:28;;;;;;;1.10;0.47;;;;;;;9.08;76.05;99206.06;4992418;28;20089;-60
2024/01/05 09:17:54;;;;;;;2.67;0.50;;;;;;;9.03;76.58;99206.19;4994292;28;20045;-60
2024/01/05 09:20:19;;;;;;;0.80;0.45;;;;;;;9.01;76.16;99215.72;4997412;28;20026;-60
2024/01/05 09:22:45;;;;;;;1.20;0.50;;;;;;;9.00;76.41;99233.78;4999878;28;20049;-60
2024/01/05 09:25:10;;;;;;;0.38;0.30;;;;;;;8.99;75.38;99209.72;4995436;28;20807;-61
2024/01/05 09:27:36;;;;;;;1.13;0.50;;;;;;;8.97;74.78;99201.22;4996638;28;20128;-65
2024/01/05 09:30:03;;;;;;;2.08;0.40;;;;;;;9.00;74.82;99203.69;4998202;28;20164;-63
2024/01/05 09:32:28;;;;;;;2.45;0.50;;;;;;;9.01;74.88;99210.56;4998078;28;20053;-64
2024/01/05 09:34:54;;;;;;;2.80;0.30;;;;;;;9.09;72.72;99180.25;4999810;28;20191;-64
2024/01/05 09:37:19;;;;;;;1.58;0.60;;;;;;;9.13;73.26;99183.59;4996915;28;20062;-63
2024/01/05 09:39:45;;;;;;;2.47;0.32;;;;;;;9.09;73.11;99190.56;4998792;28;20030;-60
2024/01/05 09:42:10;;;;;;;0.85;0.30;;;;;;;9.07;74.44;99215.56;4997301;28;20033;-60
2024/01/05 09:44:36;;;;;;;0.40;0.40;;;;;;;9.11;74.13;99227.44;5000932;28;20046;-60
2024/01/05 09:47:02;;;;;;;2.20;0.52;;;;;;;9.22;72.58;99173.03;4995336;28;20121;-60
2024/01/05 09:49:33;;;;;;;1.65;0.13;;;;;;;9.26;71.83;99190.09;4995556;28;20074;-65
2024/01/05 09:51:59;;;;;;;0.55;0.30;;;;;;;9.31;72.49;99189.97;4999138;28;20046;-64
2024/01/05 09:54:25;;;;;;;0.85;0.30;;;;;;;9.28;71.69;99195.22;4995199;28;20042;-64
2024/01/05 09:56:50;;;;;;;1.25;0.30;;;;;;;9.35;72.06;99202.72;4998416;28;20037;-63
2024/01/05 09:59:17;;;;;;;1.40;0.40;;;;;;;9.50;72.45;99212.59;4995743;28;20034;-64
2024/01/05 10:01:47;;;;;;;2.03;0.40;;;;;;;9.75;70.95;99168.06;4997275;28;20042;-64
2024/01/05 10:04:13;;;;;;;0.90;0.38;;;;;;;9.97;69.87;99169.09;4993162;28;20057;-64
2024/01/05 10:06:39;;;;;;;1.27;0.40;;;;;;;10.11;68.41;99141.94;4997322;28;20457;-64
2024/01/05 10:09:05;;;;;;;3.35;0.40;;;;;;;10.28;67.70;99127.63;4995537;28;20195;-65
2024/01/05 10:11:35;;;;;;;0.43;0.25;;;;;;;10.42;67.51;99128.00;4994331;28;20038;-64
2024/01/05 10:14:03;;;;;;;2.20;0.30;;;;;;;10.46;66.80;99116.69;4993155;28;20129;-64
2024/01/05 10:16:39;;;;;;;0.68;0.40;;;;;;;10.50;66.66;99120.88;4992681;28;20038;-64
2024/01/05 10:19:17;;;;;;;0.75;0.35;;;;;;;10.49;64.32;99077.84;4995257;28;20060;-61
2024/01/05 10:21:44;;;;;;;1.30;0.40;;;;;;;10.39;64.57;99085.06;4994588;28;20165;-61
2024/01/05 10:24:24;;;;;;;0.47;0.32;;;;;;;10.45;65.30;99109.81;4990269;28;20176;-61
2024/01/05 10:27:10;;;;;;;1.30;0.50;;;;;;;10.49;65.94;99114.84;4994412;28;20042;-61
2024/01/05 10:29:38;;;;;;;5.38;0.73;;;;;;;10.35;65.26;99109.31;4993735;28;20717;-59
2024/01/05 10:32:12;;;;;;;0.70;0.50;;;;;;;10.18;66.04;99127.09;4991971;28;20022;-59
2024/01/05 10:34:47;;;;;;;;;;;;;;;10.03;66.59;99130.19;4996998;28;20117;-58
2024/01/05 10:37:14;;;;;;;1.03;0.30;;;;;;;9.92;67.12;99137.41;4992192;28;19918;-58
2024/01/05 10:39:51;;;;;;;1.40;0.40;;;;;;;9.90;67.17;99142.63;4989911;28;20280;-59
2024/01/05 10:42:27;;;;;;;0.93;0.30;;;;;;;9.98;65.83;99148.38;4992357;28;20069;-61
2024/01/05 10:44:56;;;;;;;0.57;0.30;;;;;;;10.04;65.38;99135.28;4997871;28;20443;-61
2024/01/05 10:47:25;;;;;;;0.68;0.22;;;;;;;10.17;65.88;99135.75;4993845;28;20072;-60
2024/01/05 10:49:52;;;;;;;1.90;0.50;;;;;;;10.33;64.81;99113.66;4993747;28;20049;-61
2024/01/05 10:52:24;;;;;;;0.98;0.30;;;;;;;10.40;64.25;99081.59;4993088;28;20038;-61
2024/01/05 10:54:52;;;;;;;2.25;0.47;;;;;;;10.49;63.27;99078.69;4990459;28;20053;-61
2024/01/05 10:57:18;;;;;;;3.08;0.52;;;;;;;10.48;63.82;99096.81;4995025;28;20045;-61
2024/01/05 10:59:47;;;;;;;1.05;0.65;;;;;;;10.55;63.22;99091.38;4996088;28;20030;-60
2024/01/05 11:02:34;;;;;;;0.57;0.40;;;;;;;10.54;62.98;99092.28;4990063;28;20159;-61
2024/01/05 11:05:07;;;;;;;2.33;0.60;;;;;;;10.51;64.11;99132.88;4991602;28;20037;-61
2024/01/05 11:07:34;;;;;;;0.93;0.43;;;;;;;10.41;63.38;99090.19;4991653;28;20128;-61
2024/01/05 11:10:40;;;;;;;2.55;0.60;;;;;;;10.40;62.97;99075.56;4995695;28;20046;-61
2024/01/05 11:13:27;;;;;;;2.33;0.50;;;;;;;10.38;63.41;99069.63;4988708;28;20132;-61
2024/01/05 11:16:15;;;;;;;1.25;0.50;;;;;;;10.38;62.99;99067.03;4995445;28;20041;-61
2024/01/05 11:18:52;;;;;;;1.00;0.47;;;;;;;10.42;63.28;99071.19;4995108;28;20052;-61
2024/01/05 11:21:30;;;;;;;1.80;0.60;;;;;;;10.40;64.31;99093.66;4995794;28;20157;-61
2024/01/05 11:23:56;;;;;;;3.20;0.75;;;;;;;10.35;63.33;99075.75;4996401;28;20490;-61
2024/01/05 11:26:35;;;;;;;3.75;0.85;;;;;;;10.33;63.71;99087.03;4993196;28;20042;-62
2024/01/05 11:29:04;;;;;;;1.73;0.95;;;;;;;10.36;63.87;99089.47;4992308;28;20066;-61
2024/01/05 11:31:44;;;;;;;2.05;0.57;;;;;;;10.32;63.42;99117.16;4993822;28;20069;-59